createdAt,value
2019-04-21T00:01:03.941Z,25.14
2019-04-21T00:03:38.328Z,25.15
2019-04-21T00:06:23.092Z,25.05
2019-04-21T00:08:56.556Z,24.99
2019-04-21T00:11:29.898Z,25.00
2019-04-21T00:13:49.720Z,24.99
2019-04-21T00:16:12.250Z,25.05
2019-04-21T00:19:04.607Z,25.04
2019-04-21T00:21:36.474Z,25.07
2019-04-21T00:24:23.838Z,25.07
2019-04-21T00:26:57.815Z,24.94
2019-04-21T00:29:34.185Z,25.10
2019-04-21T00:31:58.988Z,25.11
2019-04-21T00:34:15.479Z,25.14
2019-04-21T00:36:57.373Z,25.31
2019-04-21T00:39:45.822Z,25.28
2019-04-21T00:42:05.398Z,25.41
2019-04-21T00:44:29.460Z,25.36
2019-04-21T00:47:05.180Z,25.46
2019-04-21T00:49:43.182Z,25.52
2019-04-21T00:52:58.138Z,25.45
2019-04-21T00:55:29.233Z,25.61
2019-04-21T01:00:23.304Z,25.61
2019-04-21T01:02:59.406Z,25.72
2019-04-21T01:05:34.065Z,25.63
2019-04-21T01:07:50.621Z,25.75
2019-04-21T01:10:21.076Z,25.54
2019-04-21T01:13:02.709Z,25.63
2019-04-21T01:15:35.274Z,25.55
2019-04-21T01:18:04.834Z,26.00
2019-04-21T01:20:17.681Z,26.20
2019-04-21T01:22:45.410Z,26.16
2019-04-21T01:25:22.631Z,26.21
2019-04-21T01:27:59.401Z,26.28
2019-04-21T01:30:41.051Z,26.27
2019-04-21T01:33:16.944Z,26.26
2019-04-21T01:35:40.273Z,26.36
2019-04-21T01:38:16.662Z,26.52
2019-04-21T01:40:47.688Z,26.61
2019-04-21T01:43:15.027Z,26.76
2019-04-21T01:45:47.229Z,26.70
2019-04-21T01:48:12.056Z,26.68
2019-04-21T01:50:47.017Z,26.65
2019-04-21T01:53:30.805Z,26.67
2019-04-21T01:56:24.042Z,26.72
2019-04-21T01:58:42.910Z,26.72
2019-04-21T02:01:26.265Z,26.94
2019-04-21T02:06:29.228Z,27.05
2019-04-21T02:08:57.971Z,26.97
2019-04-21T02:11:31.375Z,26.96
2019-04-21T02:16:34.588Z,28.39
2019-04-21T02:18:58.888Z,29.04
2019-04-21T02:21:30.213Z,29.52
2019-04-21T02:24:14.410Z,30.38
2019-04-21T02:26:41.230Z,30.56
2019-04-21T02:29:17.367Z,30.71
2019-04-21T02:31:57.521Z,30.28
2019-04-21T02:34:47.097Z,30.31
2019-04-21T02:37:10.047Z,30.30
2019-04-21T02:41:54.623Z,31.03
2019-04-21T02:44:34.226Z,31.45
2019-04-21T02:47:24.035Z,31.42
2019-04-21T02:49:45.321Z,31.49
2019-04-21T02:52:03.390Z,31.44
2019-04-21T02:57:08.599Z,31.60
2019-04-21T02:59:42.918Z,32.05
2019-04-21T03:02:36.709Z,32.65
2019-04-21T03:05:20.361Z,33.53
2019-04-21T03:07:54.967Z,34.00
2019-04-21T03:10:18.279Z,34.49
2019-04-21T03:12:45.908Z,34.79
2019-04-21T03:15:23.560Z,34.37
2019-04-21T03:20:23.928Z,35.27
2019-04-21T03:22:59.956Z,35.27
2019-04-21T03:25:39.105Z,35.08
2019-04-21T03:30:55.841Z,34.33
2019-04-21T03:38:06.194Z,36.01
2019-04-21T03:40:32.293Z,36.16
2019-04-21T03:43:04.915Z,36.08
2019-04-21T03:48:11.525Z,36.35
2019-04-21T03:50:37.231Z,36.19
2019-04-21T03:53:09.632Z,35.96
2019-04-21T04:04:06.358Z,37.77
2019-04-21T04:06:58.773Z,38.13
2019-04-21T04:09:26.407Z,39.09
2019-04-21T04:12:02.708Z,38.77
2019-04-21T04:14:33.027Z,38.18
2019-04-21T04:19:33.099Z,38.05
2019-04-21T04:22:04.368Z,37.74
2019-04-21T04:24:39.681Z,37.55
2019-04-21T04:27:33.571Z,37.32
2019-04-21T04:29:33.012Z,37.21
2019-04-21T04:34:41.231Z,37.51
2019-04-21T04:42:46.334Z,37.34
2019-04-21T04:45:18.060Z,37.23
2019-04-21T04:47:46.633Z,37.04
2019-04-21T04:50:04.110Z,36.77
2019-04-21T04:52:48.757Z,36.65
2019-04-21T05:02:52.431Z,36.06
2019-04-21T05:08:08.017Z,35.75
2019-04-21T05:10:34.891Z,35.55
2019-04-21T05:12:50.991Z,35.42
2019-04-21T05:15:19.849Z,35.77
2019-04-21T05:17:52.473Z,35.87
2019-04-21T05:20:41.891Z,35.89
2019-04-21T05:23:07.359Z,35.83
2019-04-21T05:25:13.514Z,36.14
2019-04-21T05:27:51.677Z,36.17
2019-04-21T05:30:35.881Z,36.16
2019-04-21T05:33:20.081Z,36.05
2019-04-21T05:36:03.105Z,35.91
2019-04-21T05:38:56.661Z,36.08
2019-04-21T05:41:18.222Z,36.14
2019-04-21T05:43:56.457Z,36.05
2019-04-21T05:46:32.048Z,39.52
2019-04-21T05:49:07.568Z,38.71
2019-04-21T05:51:31.789Z,34.78
2019-04-21T05:54:14.968Z,34.54
2019-04-21T05:56:45.699Z,34.29
2019-04-21T05:59:07.986Z,34.22
2019-04-21T06:02:09.029Z,36.07
2019-04-21T06:04:34.013Z,37.59
2019-04-21T06:06:48.142Z,34.57
2019-04-21T06:09:19.163Z,36.46
2019-04-21T06:11:51.017Z,38.03
2019-04-21T06:14:21.780Z,36.83
2019-04-21T06:16:58.672Z,35.90
2019-04-21T06:19:30.680Z,34.56
2019-04-21T06:21:51.069Z,39.48
2019-04-21T06:24:21.140Z,36.29
2019-04-21T06:29:28.584Z,34.96
2019-04-21T06:34:43.129Z,36.58
2019-04-21T06:37:34.831Z,38.74
2019-04-21T06:42:14.718Z,40.15
2019-04-21T06:44:54.072Z,39.01
2019-04-21T06:47:26.601Z,39.88
2019-04-21T06:49:48.617Z,35.73
2019-04-21T06:52:42.406Z,38.53
2019-04-21T06:55:00.110Z,36.49
2019-04-21T06:57:29.642Z,36.14
2019-04-21T06:59:49.680Z,35.39
2019-04-21T07:05:02.029Z,38.02
2019-04-21T07:07:28.138Z,38.62
2019-04-21T07:10:04.226Z,39.57
2019-04-21T07:12:28.681Z,39.03
2019-04-21T07:15:19.799Z,37.95
2019-04-21T07:17:32.507Z,36.97
2019-04-21T07:20:06.961Z,40.40
2019-04-21T07:22:36.864Z,36.50
2019-04-21T07:25:08.877Z,35.58
2019-04-21T07:27:43.058Z,35.21
2019-04-21T07:30:12.869Z,33.29
2019-04-21T07:32:49.453Z,35.28
2019-04-21T07:35:19.575Z,33.56
2019-04-21T07:37:51.160Z,34.80
2019-04-21T07:40:09.460Z,34.02
2019-04-21T07:42:42.917Z,32.72
2019-04-21T07:45:13.042Z,33.71
2019-04-21T07:47:50.649Z,35.60
2019-04-21T07:50:31.841Z,35.24
2019-04-21T07:53:19.567Z,37.62
2019-04-21T07:58:05.844Z,38.07
2019-04-21T08:00:51.340Z,36.85
2019-04-21T08:03:13.781Z,38.86
2019-04-21T08:05:47.142Z,38.74
2019-04-21T08:08:13.948Z,36.86
2019-04-21T08:10:47.438Z,38.67
2019-04-21T08:13:25.175Z,38.49
2019-04-21T08:16:06.122Z,36.43
2019-04-21T08:18:23.525Z,37.13
2019-04-21T08:20:47.789Z,38.60
2019-04-21T08:23:25.396Z,37.27
2019-04-21T08:26:03.295Z,38.11
2019-04-21T08:28:26.435Z,35.14
2019-04-21T08:30:55.285Z,37.12
2019-04-21T08:33:41.501Z,36.93
2019-04-21T08:36:13.034Z,36.94
2019-04-21T08:38:31.432Z,36.89
2019-04-21T08:41:01.943Z,37.36
2019-04-21T08:43:42.653Z,36.77
2019-04-21T08:46:05.678Z,36.04
2019-04-21T08:48:37.666Z,37.78
2019-04-21T08:51:23.968Z,36.64
2019-04-21T08:53:42.779Z,36.89
2019-04-21T08:56:45.322Z,37.16
2019-04-21T08:59:33.958Z,37.10
2019-04-21T09:02:29.534Z,37.18
2019-04-21T09:05:03.132Z,36.80
2019-04-21T09:07:36.212Z,37.23
2019-04-21T09:10:20.479Z,36.74
2019-04-21T09:12:53.505Z,36.79
2019-04-21T09:15:25.839Z,36.38
2019-04-21T09:17:48.366Z,36.84
2019-04-21T09:20:38.990Z,36.80
2019-04-21T09:23:03.070Z,36.16
2019-04-21T09:25:33.507Z,36.43
2019-04-21T09:28:01.339Z,36.55
2019-04-21T09:30:15.238Z,36.60
2019-04-21T09:32:50.616Z,36.76
2019-04-21T09:35:18.619Z,36.38
2019-04-21T09:37:56.175Z,36.06
2019-04-21T09:40:27.362Z,36.11
2019-04-21T09:42:58.648Z,35.89
2019-04-21T09:45:22.937Z,35.73
2019-04-21T09:48:00.822Z,35.31
2019-04-21T09:50:24.665Z,35.55
2019-04-21T09:52:59.741Z,35.61
2019-04-21T09:55:31.964Z,35.31
2019-04-21T09:58:07.492Z,35.50
2019-04-21T10:00:31.373Z,35.79
2019-04-21T10:03:06.034Z,35.61
2019-04-21T10:05:31.690Z,35.54
2019-04-21T10:08:01.445Z,35.60
2019-04-21T10:10:31.929Z,35.23
2019-04-21T10:13:03.225Z,35.12
2019-04-21T10:15:33.297Z,35.46
2019-04-21T10:18:08.536Z,35.14
2019-04-21T10:20:38.570Z,35.21
2019-04-21T10:23:09.214Z,34.83
2019-04-21T10:25:38.801Z,35.00
2019-04-21T10:28:08.361Z,34.25
2019-04-21T10:30:38.519Z,34.78
2019-04-21T10:33:08.409Z,34.00
2019-04-21T10:35:39.289Z,33.92
2019-04-21T10:38:20.059Z,34.61
2019-04-21T10:40:41.482Z,34.11
2019-04-21T10:43:13.727Z,34.26
2019-04-21T10:45:43.247Z,34.35
2019-04-21T10:48:12.897Z,34.44
2019-04-21T10:50:43.135Z,34.37
2019-04-21T10:53:19.279Z,34.48
2019-04-21T10:56:04.515Z,34.52
2019-04-21T10:58:24.563Z,34.76
2019-04-21T11:01:01.793Z,34.65
2019-04-21T11:03:38.843Z,34.26
2019-04-21T11:06:08.757Z,34.26
2019-04-21T11:08:43.336Z,34.41
2019-04-21T11:11:10.074Z,34.23
2019-04-21T11:13:40.832Z,34.12
2019-04-21T11:16:10.993Z,34.10
2019-04-21T11:18:41.966Z,34.67
2019-04-21T11:21:13.071Z,34.06
2019-04-21T11:23:43.912Z,33.95
2019-04-21T11:26:13.942Z,34.45
2019-04-21T11:28:45.078Z,34.03
2019-04-21T11:31:15.429Z,34.12
2019-04-21T11:33:45.483Z,33.94
2019-04-21T11:36:15.583Z,33.79
2019-04-21T11:39:19.373Z,34.25
2019-04-21T11:41:36.000Z,33.36
2019-04-21T11:44:05.692Z,33.52
2019-04-21T11:46:36.299Z,33.82
2019-04-21T11:49:06.334Z,33.97
2019-04-21T11:51:37.333Z,34.02
2019-04-21T11:54:07.009Z,33.60
2019-04-21T11:56:37.009Z,33.38
2019-04-21T11:59:07.880Z,33.68
2019-04-21T12:01:37.588Z,34.00
2019-04-21T12:04:07.585Z,33.30
2019-04-21T12:06:41.792Z,33.41
2019-04-21T12:09:09.990Z,32.88
2019-04-21T12:11:41.027Z,32.90
2019-04-21T12:14:10.563Z,33.31
2019-04-21T12:16:41.208Z,32.85
2019-04-21T12:19:12.494Z,32.78
2019-04-21T12:21:53.307Z,33.09
2019-04-21T12:24:13.479Z,32.95
2019-04-21T12:26:44.467Z,32.52
2019-04-21T12:29:14.556Z,32.84
2019-04-21T12:32:09.765Z,32.80
2019-04-21T12:34:39.764Z,32.96
2019-04-21T12:37:10.659Z,33.30
2019-04-21T12:39:40.917Z,32.48
2019-04-21T12:42:10.633Z,33.45
2019-04-21T12:44:41.301Z,32.53
2019-04-21T12:47:12.026Z,32.63
2019-04-21T12:49:41.614Z,33.96
2019-04-21T12:52:11.440Z,33.54
2019-04-21T12:54:41.816Z,32.24
2019-04-21T12:57:11.818Z,32.74
2019-04-21T12:59:42.639Z,32.35
2019-04-21T13:02:13.647Z,32.97
2019-04-21T13:04:43.960Z,32.71
2019-04-21T13:07:13.677Z,32.51
2019-04-21T13:09:44.333Z,32.32
2019-04-21T13:12:15.141Z,31.30
2019-04-21T13:14:44.747Z,31.48
2019-04-21T13:17:15.229Z,31.22
2019-04-21T13:19:45.319Z,31.63
2019-04-21T13:22:16.065Z,33.35
2019-04-21T13:24:45.592Z,33.15
2019-04-21T13:27:15.611Z,32.91
2019-04-21T13:29:46.238Z,31.87
2019-04-21T13:32:16.463Z,31.75
2019-04-21T13:34:46.292Z,32.09
2019-04-21T13:37:17.604Z,33.91
2019-04-21T13:40:29.384Z,31.09
2019-04-21T13:42:47.751Z,31.12
2019-04-21T13:45:12.326Z,31.64
2019-04-21T13:47:42.891Z,32.71
2019-04-21T13:50:13.380Z,33.74
2019-04-21T13:52:42.976Z,32.22
2019-04-21T13:55:13.962Z,30.98
2019-04-21T13:57:44.372Z,33.65
2019-04-21T14:00:15.134Z,32.67
2019-04-21T14:02:44.904Z,31.11
2019-04-21T14:05:15.811Z,30.96
2019-04-21T14:07:46.200Z,31.41
2019-04-21T14:10:17.870Z,32.38
2019-04-21T14:12:48.922Z,32.84
2019-04-21T14:15:20.270Z,31.58
2019-04-21T14:17:50.904Z,30.18
2019-04-21T14:20:21.567Z,31.15
2019-04-21T14:22:51.943Z,30.09
2019-04-21T14:25:21.742Z,31.00
2019-04-21T14:27:53.697Z,30.67
2019-04-21T14:30:23.246Z,30.61
2019-04-21T14:32:54.080Z,31.00
2019-04-21T14:35:25.022Z,30.23
2019-04-21T14:37:54.661Z,30.55
2019-04-21T14:40:27.661Z,31.54
2019-04-21T14:42:56.183Z,30.68
2019-04-21T14:45:48.496Z,32.22
2019-04-21T14:48:36.971Z,30.64
2019-04-21T14:51:23.309Z,30.79
2019-04-21T14:54:03.797Z,30.71
2019-04-21T14:56:33.600Z,29.62
2019-04-21T14:59:05.371Z,30.62
2019-04-21T15:01:35.851Z,30.07
2019-04-21T15:04:05.916Z,29.92
2019-04-21T15:06:37.031Z,30.59
2019-04-21T15:09:09.140Z,30.86
2019-04-21T15:11:39.894Z,30.75
2019-04-21T15:14:09.721Z,30.71
2019-04-21T15:16:40.784Z,30.48
2019-04-21T15:19:10.795Z,29.65
2019-04-21T15:21:40.599Z,29.17
2019-04-21T15:24:10.210Z,29.78
2019-04-21T15:26:40.165Z,30.81
2019-04-21T15:29:10.793Z,30.30
2019-04-21T15:31:44.205Z,29.60
2019-04-21T15:34:13.065Z,29.36
2019-04-21T15:36:44.117Z,29.50
2019-04-21T15:39:13.960Z,30.14
2019-04-21T15:41:44.908Z,30.01
2019-04-21T15:44:14.703Z,29.19
2019-04-21T15:46:44.342Z,29.00
2019-04-21T15:49:14.982Z,29.51
2019-04-21T15:51:46.250Z,28.92
2019-04-21T15:54:16.513Z,29.27
2019-04-21T15:57:08.959Z,28.90
2019-04-21T15:59:48.444Z,29.30
2019-04-21T16:02:36.785Z,29.04
2019-04-21T16:05:08.541Z,29.08
2019-04-21T16:07:38.355Z,28.22
2019-04-21T16:10:10.591Z,28.66
2019-04-21T16:12:40.595Z,28.89
2019-04-21T16:15:12.486Z,28.80
2019-04-21T16:17:43.383Z,28.88
2019-04-21T16:20:14.045Z,28.73
2019-04-21T16:22:44.858Z,28.64
2019-04-21T16:25:14.953Z,28.57
2019-04-21T16:27:45.487Z,28.53
2019-04-21T16:30:15.576Z,28.76
2019-04-21T16:32:46.007Z,29.04
2019-04-21T16:35:16.980Z,28.95
2019-04-21T16:37:47.737Z,29.32
2019-04-21T16:40:17.593Z,29.17
2019-04-21T16:42:48.015Z,29.09
2019-04-21T16:45:18.915Z,28.34
2019-04-21T16:47:51.775Z,28.34
2019-04-21T16:50:21.387Z,27.74
2019-04-21T16:52:56.253Z,28.95
2019-04-21T16:55:55.150Z,28.95
2019-04-21T16:58:46.461Z,29.35
2019-04-21T17:01:23.763Z,29.25
2019-04-21T17:03:54.690Z,29.26
2019-04-21T17:06:24.947Z,29.29
2019-04-21T17:08:54.788Z,29.30
2019-04-21T17:11:30.644Z,29.32
2019-04-21T17:13:56.623Z,29.53
2019-04-21T17:16:51.514Z,29.65
2019-04-21T17:19:09.171Z,29.49
2019-04-21T17:21:30.158Z,29.56
2019-04-21T17:23:59.928Z,27.59
2019-04-21T17:26:30.988Z,28.46
2019-04-21T17:29:00.870Z,25.21
2019-04-21T17:31:30.724Z,23.86
2019-04-21T17:34:09.504Z,27.26
2019-04-21T17:36:32.868Z,22.09
2019-04-21T17:39:02.695Z,21.12
2019-04-21T17:41:40.946Z,22.55
2019-04-21T17:44:04.461Z,22.73
2019-04-21T17:46:45.610Z,23.56
2019-04-21T17:49:05.449Z,22.26
2019-04-21T17:52:01.122Z,20.01
2019-04-21T17:54:37.637Z,20.85
2019-04-21T17:57:29.226Z,18.75
2019-04-21T18:02:29.786Z,18.90
2019-04-21T18:05:03.606Z,18.68
2019-04-21T18:07:31.609Z,18.52
2019-04-21T18:12:27.999Z,18.54
2019-04-21T18:14:59.229Z,18.50
2019-04-21T18:17:18.460Z,18.37
2019-04-21T18:19:51.326Z,18.39
2019-04-21T18:22:41.733Z,18.50
2019-04-21T18:25:28.043Z,25.04
2019-04-21T18:27:44.798Z,18.72
2019-04-21T18:30:48.549Z,18.68
2019-04-21T18:33:26.896Z,18.71
2019-04-21T18:36:08.575Z,18.82
2019-04-21T18:39:11.463Z,18.75
2019-04-21T18:41:32.214Z,18.85
2019-04-21T18:47:11.854Z,19.09
2019-04-21T18:49:27.174Z,19.23
2019-04-21T18:52:22.251Z,20.25
2019-04-21T18:55:02.918Z,19.65
2019-04-21T18:57:27.355Z,19.73
2019-04-21T18:59:51.209Z,19.90
2019-04-21T19:02:22.490Z,20.08
2019-04-21T19:04:54.482Z,20.23
2019-04-21T19:07:37.681Z,20.36
2019-04-21T19:10:22.818Z,20.46
2019-04-21T19:13:16.027Z,20.59
2019-04-21T19:15:15.950Z,20.71
2019-04-21T19:18:16.440Z,20.69
2019-04-21T19:20:19.416Z,20.80
2019-04-21T19:22:49.895Z,20.90
2019-04-21T19:25:20.605Z,21.00
2019-04-21T19:27:49.123Z,21.04
2019-04-21T19:30:41.476Z,21.11
2019-04-21T19:32:58.108Z,21.22
2019-04-21T19:35:12.606Z,21.32
2019-04-21T19:37:49.793Z,21.44
2019-04-21T19:40:30.690Z,21.54
2019-04-21T19:42:55.736Z,21.67
2019-04-21T19:45:31.655Z,21.76
2019-04-21T19:48:08.155Z,21.85
2019-04-21T19:50:43.857Z,21.99
2019-04-21T19:53:02.519Z,22.00
2019-04-21T19:55:20.272Z,22.03
2019-04-21T19:57:49.838Z,22.02
2019-04-21T20:00:19.446Z,22.11
2019-04-21T20:02:50.286Z,22.27
2019-04-21T20:05:25.588Z,22.43
2019-04-21T20:08:06.652Z,22.51
2019-04-21T20:10:39.609Z,22.57
2019-04-21T20:13:14.818Z,22.63
2019-04-21T20:15:44.765Z,22.71
2019-04-21T20:18:08.658Z,23.26
2019-04-21T20:20:28.906Z,22.92
2019-04-21T20:22:59.347Z,23.30
2019-04-21T20:25:30.526Z,23.08
2019-04-21T20:28:09.074Z,23.32
2019-04-21T20:30:47.175Z,23.40
2019-04-21T20:33:42.828Z,23.47
2019-04-21T20:35:58.756Z,23.58
2019-04-21T20:38:20.594Z,23.74
2019-04-21T20:40:45.383Z,23.73
2019-04-21T20:43:28.658Z,23.76
2019-04-21T20:45:59.280Z,23.84
2019-04-21T20:48:19.911Z,23.98
2019-04-21T20:51:03.500Z,24.22
2019-04-21T20:53:31.349Z,24.07
2019-04-21T20:55:57.683Z,24.31
2019-04-21T20:58:35.851Z,24.39
2019-04-21T21:01:23.954Z,24.37
2019-04-21T21:03:35.286Z,24.52
2019-04-21T21:06:02.248Z,24.54
2019-04-21T21:08:39.964Z,24.52
2019-04-21T21:11:07.060Z,24.58
2019-04-21T21:13:42.788Z,24.73
2019-04-21T21:16:23.244Z,24.83
2019-04-21T21:21:15.618Z,24.95
2019-04-21T21:23:48.079Z,25.01
2019-04-21T21:26:23.319Z,25.06
2019-04-21T21:28:45.937Z,25.22
2019-04-21T21:31:17.711Z,25.31
2019-04-21T21:33:58.927Z,25.29
2019-04-21T21:36:20.884Z,25.37
2019-04-21T21:38:56.032Z,25.53
2019-04-21T21:41:17.660Z,25.67
2019-04-21T21:43:39.481Z,25.68
2019-04-21T21:46:24.985Z,25.76
2019-04-21T21:48:53.974Z,25.90
2019-04-21T21:51:18.690Z,25.83
2019-04-21T21:53:44.415Z,25.95
2019-04-21T21:56:14.528Z,26.09
2019-04-21T21:58:46.215Z,26.13
2019-04-21T22:01:20.621Z,26.12
2019-04-21T22:03:48.892Z,26.20
2019-04-21T22:06:21.432Z,26.22
2019-04-21T22:08:50.434Z,26.22
2019-04-21T22:11:20.218Z,26.13
2019-04-21T22:13:57.666Z,26.13
2019-04-21T22:16:21.843Z,26.15
2019-04-21T22:19:14.201Z,26.18
2019-04-21T22:21:41.550Z,26.18
2019-04-21T22:24:02.811Z,26.30
2019-04-21T22:26:27.196Z,26.36
2019-04-21T22:28:58.067Z,26.41
2019-04-21T22:31:31.575Z,26.50
2019-04-21T22:34:03.838Z,26.59
2019-04-21T22:36:44.178Z,26.59
2019-04-21T22:39:19.278Z,26.60
2019-04-21T22:41:40.443Z,26.68
2019-04-21T22:44:04.811Z,26.78
2019-04-21T22:46:36.042Z,26.73
2019-04-21T22:49:09.339Z,26.68
2019-04-21T22:51:41.499Z,26.77
2019-04-21T22:54:08.293Z,26.93
2019-04-21T22:56:49.483Z,26.92
2019-04-21T22:59:15.029Z,26.84
2019-04-21T23:01:42.508Z,26.83
2019-04-21T23:04:12.404Z,27.01
2019-04-21T23:06:44.315Z,26.96
2019-04-21T23:09:14.989Z,26.94
2019-04-21T23:11:48.268Z,26.89
2019-04-21T23:14:17.528Z,26.92
2019-04-21T23:16:50.679Z,27.01
2019-04-21T23:19:34.845Z,27.03
2019-04-21T23:22:09.476Z,27.17
2019-04-21T23:24:41.796Z,27.29
2019-04-21T23:27:06.381Z,27.24
2019-04-21T23:29:52.656Z,28.26
2019-04-21T23:32:09.521Z,27.23
2019-04-21T23:34:30.591Z,27.25
2019-04-21T23:37:02.290Z,27.43
2019-04-21T23:39:32.333Z,27.25
2019-04-21T23:42:00.928Z,30.80
2019-04-21T23:44:33.883Z,27.83
2019-04-21T23:47:06.596Z,28.18
2019-04-21T23:49:42.761Z,27.73
2019-04-21T23:52:08.485Z,28.30
2019-04-21T23:54:35.567Z,29.25
2019-04-21T23:57:14.164Z,27.56
2019-04-21T23:59:40.882Z,27.82
